Time;durP1;ratioP1;P1;durP2;ratioP2;P2;SDS_P1;SDS_P2;PMS_P1;PMS_P2;Temp;Humidity;BMP_temperature;BMP_pressure;BME280_temperature;BME280_humidity;BME280_pressure;Samples;Min_cycle;Max_cycle;Signal;HPM_P1;HPM_P2
2022/09/04 00:02:37;;;;;;;0.80;0.80;;;;;;;16.24;94.28;95506.72;4340633;32;20233;-58
2022/09/04 00:05:15;;;;;;;0.97;0.63;;;;;;;16.26;94.23;95507.19;4272143;33;20262;-58
2022/09/04 00:08:02;;;;;;;0.60;0.60;;;;;;;16.17;94.14;95507.25;4279338;33;20194;-58
2022/09/04 00:10:42;;;;;;;0.60;0.60;;;;;;;16.20;93.66;95509.31;4245933;33;20192;-58
2022/09/04 00:13:38;;;;;;;0.33;0.33;;;;;;;16.37;93.78;95514.53;4259345;33;20388;-58
2022/09/04 00:16:49;;;;;;;0.40;0.40;;;;;;;16.37;93.80;95511.87;4310674;32;20186;-58
2022/09/04 00:19:55;;;;;;;2.37;0.40;;;;;;;16.35;93.97;95511.41;4319939;32;20185;-58
2022/09/04 00:23:00;;;;;;;0.63;0.63;;;;;;;16.44;93.73;95516.69;4329487;32;20189;-59
2022/09/04 00:25:51;;;;;;;1.40;1.03;;;;;;;16.43;93.48;95513.22;4264614;33;20207;-58
2022/09/04 00:28:25;;;;;;;0.60;0.60;;;;;;;16.43;93.62;95510.53;4291664;32;20193;-58
2022/09/04 00:31:32;;;;;;;0.30;0.30;;;;;;;16.36;94.14;95515.66;4336905;32;20172;-59
2022/09/04 00:34:49;;;;;;;0.37;0.37;;;;;;;16.42;93.39;95519.69;4301419;32;20242;-59
2022/09/04 00:37:20;;;;;;;0.17;0.17;;;;;;;16.41;93.46;95518.16;4319350;32;20200;-57
2022/09/04 00:40:40;;;;;;;0.03;0.03;;;;;;;16.46;93.67;95514.47;4320286;32;20235;-58
2022/09/04 00:43:29;;;;;;;0.33;0.33;;;;;;;16.30;94.39;95519.63;4282718;33;20209;-58
2022/09/04 00:46:22;;;;;;;0.30;0.30;;;;;;;16.45;93.65;95529.75;4267383;33;20240;-59
2022/09/04 00:49:12;;;;;;;0.30;0.30;;;;;;;16.33;93.61;95516.28;4328108;32;20204;-61
2022/09/04 00:52:15;;;;;;;0.23;0.23;;;;;;;16.33;93.98;95510.16;4333167;32;20343;-59
2022/09/04 00:55:22;;;;;;;0.53;0.53;;;;;;;16.39;93.64;95520.37;4299213;32;20185;-58
2022/09/04 00:58:16;;;;;;;0.00;0.00;;;;;;;16.41;93.35;95526.19;4271336;33;20301;-66
2022/09/04 01:00:46;;;;;;;1.27;0.33;;;;;;;16.16;94.49;95532.47;4294941;32;20209;-58
2022/09/04 01:03:48;;;;;;;0.47;0.47;;;;;;;16.35;94.13;95529.38;4313670;32;20193;-58
2022/09/04 01:06:46;;;;;;;0.20;0.20;;;;;;;16.47;93.64;95526.75;4293709;33;20209;-58
2022/09/04 01:09:14;;;;;;;0.13;0.13;;;;;;;16.47;93.18;95532.09;4314757;32;20204;-58
2022/09/04 01:12:15;;;;;;;0.43;0.43;;;;;;;16.40;93.46;95531.84;4342418;32;20174;-58
2022/09/04 01:14:56;;;;;;;0.50;0.50;;;;;;;16.42;93.68;95535.75;4330193;32;20263;-59
2022/09/04 01:17:59;;;;;;;0.23;0.23;;;;;;;16.48;93.59;95534.47;4339252;32;20189;-60
2022/09/04 01:21:05;;;;;;;0.30;0.30;;;;;;;16.58;93.06;95533.31;4266131;33;20201;-59
2022/09/04 01:24:11;;;;;;;0.20;0.20;;;;;;;16.56;93.59;95538.22;4293334;32;20201;-58
2022/09/04 01:26:44;;;;;;;0.40;0.40;;;;;;;16.60;93.45;95541.03;4329339;32;20178;-58
2022/09/04 01:29:48;;;;;;;0.13;0.13;;;;;;;16.65;93.47;95538.94;4332155;32;20203;-58
2022/09/04 01:32:48;;;;;;;0.10;0.10;;;;;;;16.61;93.49;95539.91;4316988;32;20185;-59
2022/09/04 01:35:52;;;;;;;0.63;0.37;;;;;;;16.52;93.23;95539.97;4328929;32;20186;-59
2022/09/04 01:38:57;;;;;;;0.20;0.20;;;;;;;16.57;93.68;95555.06;4330370;32;20178;-66
2022/09/04 01:41:53;;;;;;;0.60;0.53;;;;;;;16.46;94.19;95546.59;4328904;32;20223;-59
2022/09/04 01:44:18;;;;;;;0.20;0.20;;;;;;;16.45;94.01;95540.47;4272338;33;20202;-59
2022/09/04 01:47:22;;;;;;;0.40;0.40;;;;;;;16.55;94.01;95546.56;4330271;32;20182;-59
2022/09/04 01:50:03;;;;;;;0.07;0.07;;;;;;;16.43;93.94;95544.56;4261348;32;20223;-65
2022/09/04 01:53:10;;;;;;;0.33;0.33;;;;;;;16.54;94.42;95547.69;4324530;33;20231;-59
2022/09/04 01:56:26;;;;;;;0.17;0.17;;;;;;;16.48;93.80;95552.44;4315951;33;20275;-58
2022/09/04 01:59:23;;;;;;;0.10;0.10;;;;;;;16.58;94.40;95557.41;4244952;33;20182;-59
2022/09/04 02:02:24;;;;;;;0.47;0.47;;;;;;;16.59;94.10;95552.84;4261724;33;20202;-59
2022/09/04 02:04:59;;;;;;;0.57;0.57;;;;;;;16.65;94.17;95552.34;4287050;33;20194;-59
2022/09/04 02:07:48;;;;;;;0.10;0.10;;;;;;;16.63;94.24;95553.75;4288934;33;20221;-59
2022/09/04 02:10:37;;;;;;;0.40;0.40;;;;;;;16.60;94.65;95547.16;4306869;32;20205;-59
2022/09/04 02:13:15;;;;;;;0.33;0.33;;;;;;;16.65;94.25;95543.53;4330148;32;20181;-58
2022/09/04 02:16:07;;;;;;;0.30;0.30;;;;;;;16.57;94.75;95552.38;4324899;32;20206;-59
2022/09/04 02:19:23;;;;;;;0.17;0.17;;;;;;;16.57;94.60;95552.38;4327456;32;20188;-64
2022/09/04 02:22:32;;;;;;;0.23;0.23;;;;;;;16.61;94.93;95559.44;4335316;32;20182;-59
2022/09/04 02:25:27;;;;;;;0.40;0.40;;;;;;;16.69;94.47;95563.97;4306873;32;20208;-59
2022/09/04 02:28:29;;;;;;;0.23;0.23;;;;;;;16.74;94.31;95552.28;4335702;32;20196;-58
2022/09/04 02:31:58;;;;;;;0.30;0.30;;;;;;;16.70;94.29;95560.19;4326903;32;20303;-58
2022/09/04 02:34:55;;;;;;;0.30;0.30;;;;;;;16.77;94.42;95555.09;4277604;33;20194;-58
2022/09/04 02:37:50;;;;;;;0.10;0.10;;;;;;;16.67;94.48;95557.37;4286368;32;20191;-58
2022/09/04 02:40:24;;;;;;;0.10;0.10;;;;;;;16.70;94.36;95556.72;4325609;32;20184;-59
2022/09/04 02:43:14;;;;;;;0.20;0.20;;;;;;;16.70;94.89;95554.06;4334166;32;20186;-58
2022/09/04 02:46:26;;;;;;;0.30;0.30;;;;;;;16.69;94.57;95553.25;4313664;32;20193;-58
2022/09/04 02:49:23;;;;;;;0.10;0.10;;;;;;;16.71;94.49;95559.09;4318314;32;20203;-59
2022/09/04 02:52:32;;;;;;;0.10;0.10;;;;;;;16.69;94.65;95555.16;4327490;32;20292;-58
2022/09/04 02:55:29;;;;;;;0.50;0.50;;;;;;;16.69;94.77;95557.84;4307138;32;20189;-58
2022/09/04 02:58:48;;;;;;;0.20;0.20;;;;;;;16.63;94.93;95561.78;4331830;32;20208;-58
2022/09/04 03:01:39;;;;;;;0.50;0.50;;;;;;;16.54;94.38;95563.75;4309995;32;20177;-58
2022/09/04 03:04:51;;;;;;;0.10;0.10;;;;;;;16.64;94.91;95558.03;4313875;32;20232;-58
2022/09/04 03:07:35;;;;;;;0.43;0.43;;;;;;;16.53;94.89;95552.25;4323248;32;20200;-59
2022/09/04 03:10:38;;;;;;;0.10;0.10;;;;;;;16.59;94.84;95561.66;4331129;32;20189;-58
2022/09/04 03:13:25;;;;;;;0.10;0.10;;;;;;;16.63;94.82;95559.09;4341560;32;20184;-59
2022/09/04 03:16:42;;;;;;;0.40;0.40;;;;;;;16.63;94.93;95564.47;4312581;32;20193;-58
2022/09/04 03:19:54;;;;;;;0.20;0.13;;;;;;;16.57;95.38;95563.88;4268316;33;20191;-58
2022/09/04 03:22:31;;;;;;;0.30;0.30;;;;;;;16.56;95.30;95565.00;4313919;32;20212;-58
2022/09/04 03:25:27;;;;;;;0.43;0.43;;;;;;;16.46;95.05;95565.34;4337242;32;20182;-58
2022/09/04 03:27:53;;;;;;;0.27;0.27;;;;;;;16.47;95.23;95565.03;4325032;32;20188;-59
2022/09/04 03:30:26;;;;;;;2.30;0.50;;;;;;;16.46;95.36;95566.13;4326047;32;20189;-61
2022/09/04 03:33:26;;;;;;;0.43;0.43;;;;;;;16.48;95.58;95566.59;4323528;32;20216;-59
2022/09/04 03:36:11;;;;;;;0.40;0.40;;;;;;;16.43;95.30;95574.81;4314353;32;20196;-59
2022/09/04 03:38:57;;;;;;;0.20;0.20;;;;;;;16.58;95.26;95578.06;4328827;32;20255;-58
2022/09/04 03:45:01;;;;;;;0.40;0.40;;;;;;;16.32;95.24;95568.28;4337293;32;20305;-58
2022/09/04 03:47:57;;;;;;;0.27;0.27;;;;;;;16.47;95.46;95574.97;4313372;32;20311;-58
2022/09/04 03:50:50;;;;;;;1.17;0.37;;;;;;;16.40;95.32;95586.19;4298925;32;20185;-59
2022/09/04 03:53:49;;;;;;;0.10;0.10;;;;;;;16.34;95.46;95579.44;4328277;32;20185;-58
2022/09/04 03:57:18;;;;;;;0.67;0.67;;;;;;;16.43;95.54;95585.53;4291143;32;20205;-58
2022/09/04 04:00:17;;;;;;;0.30;0.30;;;;;;;16.47;95.25;95583.00;4245725;33;20239;-58
2022/09/04 04:03:05;;;;;;;1.13;0.40;;;;;;;16.12;95.60;95577.03;4312172;32;20200;-58
2022/09/04 04:05:50;;;;;;;0.10;0.10;;;;;;;16.22;95.09;95578.56;4336631;32;20209;-58
2022/09/04 04:09:10;;;;;;;0.17;0.17;;;;;;;16.40;95.43;95583.53;4324338;32;20248;-58
2022/09/04 04:12:15;;;;;;;0.30;0.30;;;;;;;16.47;94.77;95594.50;4319940;32;20204;-60
2022/09/04 04:15:19;;;;;;;0.10;0.10;;;;;;;16.44;94.60;95586.31;4304577;33;20295;-59
2022/09/04 04:18:03;;;;;;;0.30;0.30;;;;;;;16.48;94.66;95593.38;4299545;33;20194;-59
2022/09/04 04:21:12;;;;;;;0.37;0.37;;;;;;;16.42;94.93;95594.66;4277991;33;20202;-59
2022/09/04 04:24:16;;;;;;;0.40;0.40;;;;;;;16.47;95.18;95597.16;4290194;32;20185;-59
2022/09/04 04:27:06;;;;;;;0.07;0.07;;;;;;;16.39;95.33;95606.06;4323594;32;20189;-58
2022/09/04 04:30:00;;;;;;;1.90;0.33;;;;;;;16.46;95.11;95605.53;4324398;32;20204;-58
2022/09/04 04:32:44;;;;;;;0.30;0.30;;;;;;;16.43;95.05;95600.81;4333234;32;20235;-58
2022/09/04 04:35:57;;;;;;;0.07;0.07;;;;;;;16.45;94.60;95603.97;4316494;32;20365;-58
2022/09/04 04:38:48;;;;;;;0.00;0.00;;;;;;;16.28;94.70;95610.19;4328513;32;20185;-58
2022/09/04 04:47:52;;;;;;;0.30;0.30;;;;;;;16.33;94.81;95626.06;4334649;32;20220;-59
2022/09/04 04:50:58;;;;;;;0.10;0.10;;;;;;;16.25;94.74;95626.87;4318662;32;20181;-59
2022/09/04 04:53:35;;;;;;;0.73;0.67;;;;;;;16.35;94.94;95628.44;4315773;32;20200;-59
2022/09/04 04:59:46;;;;;;;0.10;0.10;;;;;;;16.30;95.33;95645.47;4326940;32;20197;-58
2022/09/04 05:02:37;;;;;;;0.37;0.37;;;;;;;16.22;95.18;95646.25;4326513;32;20273;-58
2022/09/04 05:05:33;;;;;;;0.10;0.10;;;;;;;16.30;95.47;95647.34;4314440;32;20181;-58
2022/09/04 05:08:20;;;;;;;0.43;0.43;;;;;;;16.39;94.66;95656.94;4303001;32;20212;-58
2022/09/04 05:11:10;;;;;;;0.43;0.43;;;;;;;16.22;95.32;95659.66;4328588;32;20193;-59
2022/09/04 05:14:17;;;;;;;0.10;0.10;;;;;;;16.35;94.82;95653.31;4331626;32;20208;-58
2022/09/04 05:16:58;;;;;;;0.63;0.63;;;;;;;16.24;95.04;95667.38;4330519;32;20280;-59
2022/09/04 05:19:41;;;;;;;0.47;0.47;;;;;;;16.16;95.86;95668.97;4330608;32;20249;-58
2022/09/04 05:22:44;;;;;;;0.87;0.50;;;;;;;16.13;94.90;95673.09;4318496;32;20252;-58
2022/09/04 05:25:37;;;;;;;0.40;0.40;;;;;;;16.32;94.92;95675.38;4321216;32;20186;-58
2022/09/04 05:28:25;;;;;;;0.40;0.40;;;;;;;16.24;95.17;95678.06;4291619;33;20186;-58
2022/09/04 05:34:42;;;;;;;0.10;0.10;;;;;;;16.35;94.81;95685.47;4314343;32;20213;-59
2022/09/04 05:37:53;;;;;;;0.10;0.10;;;;;;;16.47;94.67;95684.78;4305310;32;20185;-59
2022/09/04 05:40:37;;;;;;;0.27;0.27;;;;;;;16.51;94.56;95693.75;4268217;32;20185;-58
2022/09/04 05:43:42;;;;;;;0.40;0.40;;;;;;;16.49;94.45;95704.78;4341499;32;20244;-59
2022/09/04 05:50:07;;;;;;;0.10;0.10;;;;;;;16.56;94.45;95706.16;4325232;32;20191;-58
2022/09/04 05:52:51;;;;;;;0.43;0.43;;;;;;;16.56;94.39;95700.81;4335062;32;20200;-58
2022/09/04 05:55:56;;;;;;;0.40;0.40;;;;;;;16.67;94.22;95699.38;4332983;32;20209;-58
2022/09/04 05:59:09;;;;;;;0.33;0.33;;;;;;;16.54;94.28;95692.31;4331615;32;20211;-58
2022/09/04 06:05:18;;;;;;;0.40;0.40;;;;;;;16.50;94.98;95709.03;4319510;32;20244;-58
2022/09/04 06:08:28;;;;;;;0.20;0.20;;;;;;;16.45;95.13;95717.22;4284869;32;20198;-58
2022/09/04 06:11:45;;;;;;;0.37;0.37;;;;;;;16.56;95.42;95719.56;4298800;32;20195;-59
2022/09/04 06:14:33;;;;;;;0.43;0.43;;;;;;;16.63;95.07;95726.00;4317711;32;20261;-59
2022/09/04 06:17:38;;;;;;;0.20;0.20;;;;;;;16.62;95.35;95724.44;4311436;32;20197;-59
2022/09/04 06:20:43;;;;;;;0.13;0.13;;;;;;;16.61;95.73;95722.06;4324622;32;20291;-58
2022/09/04 06:23:37;;;;;;;0.50;0.50;;;;;;;16.57;96.05;95729.19;4322165;32;20205;-58
2022/09/04 06:30:03;;;;;;;0.60;0.60;;;;;;;16.70;96.03;95734.34;4315216;32;20204;-59
2022/09/04 06:33:07;;;;;;;0.37;0.37;;;;;;;16.73;96.07;95739.06;4317492;32;20319;-58
2022/09/04 06:35:57;;;;;;;0.30;0.30;;;;;;;16.82;96.02;95737.16;4321559;32;20189;-58
2022/09/04 06:38:57;;;;;;;0.40;0.40;;;;;;;16.90;95.87;95740.87;4312667;32;20204;-60
2022/09/04 06:45:11;;;;;;;0.67;0.67;;;;;;;17.05;95.45;95737.62;4278336;32;20203;-58
2022/09/04 06:48:12;;;;;;;0.20;0.20;;;;;;;17.07;95.64;95748.81;4314962;32;20248;-58
2022/09/04 06:51:06;;;;;;;0.17;0.17;;;;;;;17.06;95.69;95749.94;4334730;32;20178;-58
2022/09/04 06:54:10;;;;;;;0.57;0.57;;;;;;;17.16;95.39;95749.56;4334220;32;20181;-58
2022/09/04 07:00:15;;;;;;;0.13;0.13;;;;;;;17.13;95.58;95755.59;4333057;32;20219;-58
2022/09/04 07:03:23;;;;;;;0.40;0.40;;;;;;;17.18;94.75;95750.03;4310428;32;20261;-59
2022/09/04 07:06:17;;;;;;;0.67;0.63;;;;;;;17.25;94.45;95751.44;4304155;32;20189;-58
2022/09/04 07:09:04;;;;;;;3.33;1.50;;;;;;;17.29;95.11;95755.81;4303897;33;20213;-59
2022/09/04 07:12:11;;;;;;;0.73;0.70;;;;;;;17.28;94.48;95761.47;4305809;32;20251;-59
2022/09/04 07:15:16;;;;;;;3.03;1.97;;;;;;;17.33;94.97;95762.09;4284003;33;20186;-59
2022/09/04 07:18:30;;;;;;;6.73;4.13;;;;;;;17.42;94.80;95762.84;4312286;32;20217;-59
2022/09/04 07:21:43;;;;;;;2.07;1.93;;;;;;;17.54;94.06;95762.13;4309654;32;20182;-59
2022/09/04 07:24:45;;;;;;;3.13;2.13;;;;;;;17.56;94.80;95770.63;4274505;32;20186;-59
2022/09/04 07:27:27;;;;;;;2.70;2.50;;;;;;;17.69;93.57;95774.97;4303221;32;21352;-59
2022/09/04 07:30:02;;;;;;;9.67;8.10;;;;;;;17.71;93.72;95775.44;4313784;32;20185;-59
2022/09/04 07:33:14;;;;;;;2.30;2.10;;;;;;;17.69;93.76;95774.19;4276366;32;20225;-59
2022/09/04 07:35:53;;;;;;;30.63;20.13;;;;;;;17.63;93.80;95776.28;4312230;32;20266;-59
2022/09/04 07:38:31;;;;;;;4.50;4.07;;;;;;;17.69;93.77;95779.56;4326249;32;20235;-59
2022/09/04 07:41:37;;;;;;;20.17;12.97;;;;;;;17.74;94.00;95785.50;4317141;32;20182;-59
2022/09/04 07:44:21;;;;;;;4.87;4.30;;;;;;;17.84;92.77;95784.34;4290075;32;20173;-59
2022/09/04 07:47:16;;;;;;;1.53;1.40;;;;;;;17.87;92.85;95781.03;4303643;32;20189;-59
2022/09/04 07:50:07;;;;;;;1.07;1.07;;;;;;;17.97;92.74;95779.81;4322530;32;20242;-59
2022/09/04 07:53:12;;;;;;;1.17;0.90;;;;;;;18.07;92.12;95785.59;4332110;32;20243;-58
2022/09/04 07:55:47;;;;;;;2.00;1.03;;;;;;;18.12;92.42;95788.03;4321588;32;20177;-59
2022/09/04 07:58:48;;;;;;;1.97;0.77;;;;;;;18.11;92.32;95797.22;4334287;32;20236;-59
2022/09/04 08:01:55;;;;;;;2.47;1.30;;;;;;;18.15;91.46;95798.12;4314478;33;20260;-59
2022/09/04 08:05:02;;;;;;;1.00;0.90;;;;;;;18.19;92.38;95801.75;4316509;32;20189;-59
2022/09/04 08:07:47;;;;;;;0.40;0.40;;;;;;;18.31;91.03;95808.25;4319938;32;20236;-59
2022/09/04 08:10:58;;;;;;;0.37;0.37;;;;;;;18.37;91.12;95815.00;4339401;32;20177;-59
2022/09/04 08:13:42;;;;;;;0.53;0.53;;;;;;;18.39;90.80;95818.94;4299666;32;20204;-59
2022/09/04 08:16:43;;;;;;;0.57;0.57;;;;;;;18.41;91.50;95819.41;4306487;32;20197;-59
2022/09/04 08:19:40;;;;;;;0.73;0.73;;;;;;;18.45;91.97;95817.63;4321572;32;20181;-58
2022/09/04 08:22:13;;;;;;;0.80;0.80;;;;;;;18.52;90.78;95822.44;4331258;32;20263;-59
2022/09/04 08:24:49;;;;;;;0.87;0.87;;;;;;;18.52;90.50;95823.22;4283393;32;20237;-59
2022/09/04 08:27:46;;;;;;;0.40;0.40;;;;;;;18.56;91.23;95828.72;4301460;32;20245;-59
2022/09/04 08:30:17;;;;;;;1.87;1.40;;;;;;;18.68;90.55;95825.34;4284075;32;20294;-59
2022/09/04 08:33:10;;;;;;;2.27;2.17;;;;;;;18.76;89.90;95827.13;4336092;32;20304;-59
2022/09/04 08:36:15;;;;;;;0.70;0.70;;;;;;;18.81;89.86;95826.94;4324371;32;20181;-59
2022/09/04 08:39:03;;;;;;;4.33;1.30;;;;;;;18.91;89.76;95831.87;4326934;32;20196;-59
2022/09/04 08:42:08;;;;;;;1.93;1.83;;;;;;;18.91;89.20;95834.56;4337000;32;20197;-59
2022/09/04 08:45:02;;;;;;;1.30;1.20;;;;;;;18.94;90.47;95835.78;4335611;32;20196;-59
2022/09/04 08:47:51;;;;;;;0.40;0.40;;;;;;;18.97;90.52;95835.91;4336423;32;20244;-59
2022/09/04 08:50:44;;;;;;;0.73;0.73;;;;;;;19.03;88.95;95839.19;4339108;32;20193;-60
2022/09/04 08:53:55;;;;;;;0.47;0.47;;;;;;;19.10;88.46;95842.13;4347951;32;20208;-59
2022/09/04 08:56:53;;;;;;;0.67;0.67;;;;;;;19.18;87.86;95847.37;4282166;33;20272;-59
2022/09/04 08:59:40;;;;;;;0.80;0.80;;;;;;;19.17;86.26;95842.31;4333961;32;20181;-59
2022/09/04 09:02:36;;;;;;;0.53;0.47;;;;;;;19.25;86.48;95854.13;4314372;32;20220;-60
2022/09/04 09:05:24;;;;;;;2.67;2.43;;;;;;;19.31;86.85;95850.88;4332590;32;20264;-59
2022/09/04 09:08:27;;;;;;;0.43;0.43;;;;;;;19.32;86.78;95848.97;4361283;32;20208;-59
2022/09/04 09:11:17;;;;;;;0.70;0.70;;;;;;;19.29;87.53;95850.41;4311010;32;20189;-60
2022/09/04 09:13:56;;;;;;;0.67;0.67;;;;;;;19.41;85.90;95852.31;4284085;32;20190;-59
2022/09/04 09:16:32;;;;;;;0.77;0.77;;;;;;;19.43;86.21;95844.69;4349819;32;20193;-59
2022/09/04 09:19:17;;;;;;;0.90;0.90;;;;;;;19.44;85.90;95841.66;4337334;32;20235;-59
2022/09/04 09:22:21;;;;;;;0.70;0.70;;;;;;;19.49;86.47;95854.13;4332319;32;20278;-60
2022/09/04 09:24:56;;;;;;;0.40;0.40;;;;;;;19.46;86.54;95847.50;4278620;33;20182;-59
2022/09/04 09:27:41;;;;;;;0.80;0.80;;;;;;;19.54;86.97;95851.22;4309511;32;20205;-59
2022/09/04 09:30:11;;;;;;;0.93;0.50;;;;;;;19.65;86.22;95846.97;4343328;32;20237;-59
2022/09/04 09:33:17;;;;;;;0.50;0.50;;;;;;;19.67;84.87;95839.34;4331650;32;20221;-59
2022/09/04 09:36:16;;;;;;;1.13;0.60;;;;;;;19.69;85.71;95839.78;4332229;32;20191;-59
2022/09/04 09:39:04;;;;;;;0.53;0.53;;;;;;;19.82;82.19;95837.84;4313069;32;20292;-60
2022/09/04 09:41:52;;;;;;;0.53;0.53;;;;;;;19.77;81.97;95843.47;4302048;32;20198;-60
2022/09/04 09:44:58;;;;;;;0.30;0.30;;;;;;;19.75;82.47;95843.78;4331022;32;20205;-60
2022/09/04 09:48:01;;;;;;;0.50;0.50;;;;;;;19.78;82.24;95835.03;4351733;32;20209;-60
2022/09/04 09:51:17;;;;;;;0.40;0.40;;;;;;;19.96;81.56;95837.47;4343333;32;20311;-59
2022/09/04 09:54:07;;;;;;;0.37;0.37;;;;;;;19.97;81.27;95831.75;4300552;32;20265;-60
2022/09/04 09:56:54;;;;;;;0.50;0.50;;;;;;;20.00;81.27;95823.00;4338182;32;20181;-59
2022/09/04 10:00:01;;;;;;;0.30;0.30;;;;;;;20.13;80.78;95834.53;4324845;32;20199;-60
2022/09/04 10:02:49;;;;;;;2.20;0.73;;;;;;;20.14;80.35;95825.31;4327303;32;20445;-59
2022/09/04 10:05:52;;;;;;;0.43;0.43;;;;;;;20.21;78.23;95836.28;4318634;32;20193;-60
2022/09/04 10:08:56;;;;;;;0.20;0.20;;;;;;;20.15;79.83;95833.06;4337970;32;20189;-60
2022/09/04 10:12:00;;;;;;;0.77;0.77;;;;;;;20.10;79.28;95830.63;4306539;32;20192;-60
2022/09/04 10:15:11;;;;;;;0.77;0.77;;;;;;;20.04;80.54;95828.50;4330189;32;20189;-60
2022/09/04 10:18:14;;;;;;;0.90;0.90;;;;;;;19.94;80.65;95828.97;4349518;32;20243;-60
2022/09/04 10:21:09;;;;;;;0.40;0.40;;;;;;;19.97;79.11;95830.97;4322250;32;20185;-62
2022/09/04 10:24:25;;;;;;;0.10;0.10;;;;;;;20.09;77.05;95833.66;4301597;32;20182;-60
2022/09/04 10:27:29;;;;;;;0.60;0.60;;;;;;;20.41;75.18;95829.97;4321416;32;20272;-59
2022/09/04 10:30:14;;;;;;;0.63;0.63;;;;;;;20.64;73.75;95827.50;4294534;32;20185;-60
2022/09/04 10:33:10;;;;;;;0.47;0.40;;;;;;;20.63;75.26;95830.53;4269646;33;20194;-60
2022/09/04 10:36:08;;;;;;;0.40;0.40;;;;;;;20.62;74.35;95831.66;4290087;32;20295;-60
2022/09/04 10:42:31;;;;;;;0.37;0.37;;;;;;;20.56;74.28;95833.84;4331422;32;20212;-60
2022/09/04 10:45:25;;;;;;;0.33;0.33;;;;;;;20.65;74.54;95826.38;4318925;32;20294;-60
2022/09/04 10:48:04;;;;;;;0.20;0.20;;;;;;;20.79;73.67;95832.13;4307356;32;20206;-60
2022/09/04 10:51:08;;;;;;;0.30;0.30;;;;;;;20.97;73.14;95832.59;4343530;32;20177;-60
2022/09/04 10:54:15;;;;;;;1.00;0.97;;;;;;;20.95;73.99;95826.78;4357379;32;20193;-60
2022/09/04 10:57:20;;;;;;;0.27;0.27;;;;;;;20.93;73.74;95824.41;4328908;32;20192;-60
2022/09/04 11:00:38;;;;;;;0.27;0.27;;;;;;;20.88;73.99;95826.59;4343547;32;20185;-60
2022/09/04 11:04:00;;;;;;;1.00;0.83;;;;;;;21.17;67.78;95826.19;4300141;32;20250;-60
2022/09/04 11:06:57;;;;;;;0.63;0.63;;;;;;;21.37;68.23;95821.66;4227166;33;20191;-60
2022/09/04 11:09:48;;;;;;;0.50;0.50;;;;;;;21.33;69.49;95822.72;4262981;33;20201;-59
2022/09/04 11:12:30;;;;;;;4.33;0.70;;;;;;;21.26;68.96;95821.41;4325465;32;20269;-59
2022/09/04 11:15:14;;;;;;;0.30;0.30;;;;;;;21.33;65.13;95828.09;4345021;32;20193;-60
2022/09/04 11:18:27;;;;;;;0.47;0.47;;;;;;;21.34;67.10;95826.97;4324845;32;20185;-60
2022/09/04 11:21:23;;;;;;;0.30;0.30;;;;;;;21.33;68.32;95830.81;4251226;33;20351;-59
2022/09/04 11:24:26;;;;;;;0.30;0.30;;;;;;;21.28;68.66;95826.44;4263021;33;20178;-60
2022/09/04 11:27:44;;;;;;;0.30;0.27;;;;;;;21.18;69.39;95830.44;4249844;33;20182;-59
2022/09/04 11:30:30;;;;;;;0.20;0.20;;;;;;;21.14;69.41;95834.97;4212921;33;20214;-59
2022/09/04 11:33:17;;;;;;;0.20;0.20;;;;;;;21.14;68.98;95834.97;4224307;33;20200;-60
2022/09/04 11:36:20;;;;;;;0.10;0.10;;;;;;;21.27;66.89;95828.38;4225514;33;20355;-60
2022/09/04 11:39:07;;;;;;;0.60;0.60;;;;;;;21.37;66.37;95821.66;4231801;33;20187;-60
2022/09/04 11:41:54;;;;;;;0.40;0.40;;;;;;;21.22;67.00;95823.22;4228869;33;20297;-60
2022/09/04 11:44:59;;;;;;;0.27;0.27;;;;;;;21.08;69.18;95828.25;4246980;33;20186;-60
2022/09/04 11:48:00;;;;;;;0.47;0.47;;;;;;;21.03;70.37;95825.81;4266665;33;20193;-60
2022/09/04 11:50:58;;;;;;;0.50;0.50;;;;;;;21.02;70.75;95832.31;4238720;33;20229;-67
2022/09/04 11:54:00;;;;;;;1.43;0.50;;;;;;;21.10;69.93;95828.69;4269719;33;20209;-66
2022/09/04 11:56:52;;;;;;;0.37;0.37;;;;;;;21.14;70.09;95829.56;4285007;33;20268;-59
2022/09/04 11:59:48;;;;;;;2.50;2.20;;;;;;;21.11;70.12;95829.47;4274676;33;20298;-59
2022/09/04 12:02:52;;;;;;;0.83;0.83;;;;;;;20.98;71.70;95830.69;4292726;33;20292;-60
2022/09/04 12:05:38;;;;;;;0.70;0.70;;;;;;;20.93;72.22;95829.03;4286191;32;20189;-62
2022/09/04 12:08:22;;;;;;;0.80;0.80;;;;;;;20.85;73.12;95829.97;4329451;32;20272;-62
2022/09/04 12:11:12;;;;;;;1.33;1.10;;;;;;;21.04;70.92;95830.06;4334429;32;20180;-62
2022/09/04 12:14:15;;;;;;;0.77;0.77;;;;;;;21.11;67.92;95830.25;4305374;32;20233;-61
2022/09/04 12:17:14;;;;;;;2.17;0.87;;;;;;;21.21;68.26;95824.34;4321801;32;20185;-62
2022/09/04 12:20:25;;;;;;;0.07;0.07;;;;;;;21.40;66.93;95829.06;4325841;32;20173;-62
2022/09/04 12:23:11;;;;;;;0.30;0.30;;;;;;;21.48;66.29;95817.28;4311833;32;20268;-62
2022/09/04 12:26:08;;;;;;;0.00;0.00;;;;;;;21.64;65.73;95825.34;4292371;32;20189;-61
2022/09/04 12:29:00;;;;;;;0.30;0.30;;;;;;;21.65;67.21;95821.53;4299328;32;20190;-60
2022/09/04 12:31:53;;;;;;;1.80;0.50;;;;;;;21.72;66.55;95823.59;4324180;32;20250;-58
2022/09/04 12:35:07;;;;;;;2.10;0.40;;;;;;;21.71;66.19;95830.94;4323131;32;20220;-60
2022/09/04 12:38:10;;;;;;;0.30;0.30;;;;;;;21.78;64.59;95828.41;4305791;33;20209;-59
2022/09/04 12:40:52;;;;;;;0.10;0.10;;;;;;;21.85;65.17;95819.66;4321121;32;20185;-59
2022/09/04 12:44:02;;;;;;;0.30;0.30;;;;;;;22.09;63.78;95824.03;4327470;32;20181;-59
2022/09/04 12:47:07;;;;;;;0.20;0.20;;;;;;;22.12;63.39;95828.75;4290711;33;20174;-60
2022/09/04 12:49:44;;;;;;;0.20;0.20;;;;;;;22.24;62.44;95831.31;4297831;33;20190;-59
2022/09/04 12:52:35;;;;;;;0.23;0.23;;;;;;;22.24;61.70;95831.31;4292525;33;20186;-59
2022/09/04 12:55:21;;;;;;;0.40;0.40;;;;;;;22.27;61.99;95842.19;4275258;33;20179;-59
2022/09/04 12:58:23;;;;;;;0.37;0.37;;;;;;;22.23;61.92;95824.37;4263912;32;20190;-60
2022/09/04 13:01:09;;;;;;;0.27;0.27;;;;;;;22.10;63.38;95828.31;4310983;32;20189;-59
2022/09/04 13:04:25;;;;;;;0.43;0.43;;;;;;;22.18;63.32;95827.34;4330699;32;20201;-59
2022/09/04 13:07:28;;;;;;;0.30;0.30;;;;;;;22.18;62.22;95830.03;4307929;32;20220;-59
2022/09/04 13:10:11;;;;;;;0.67;0.40;;;;;;;22.14;60.69;95827.25;4294467;32;20174;-64
2022/09/04 13:13:24;;;;;;;0.27;0.27;;;;;;;22.00;62.17;95831.56;4328037;32;20219;-59
2022/09/04 13:16:29;;;;;;;0.20;0.20;;;;;;;21.85;61.68;95830.44;4306345;32;20186;-59
2022/09/04 13:19:10;;;;;;;0.20;0.20;;;;;;;22.01;60.02;95831.25;4318070;32;20194;-60
2022/09/04 13:22:11;;;;;;;1.57;0.83;;;;;;;21.95;60.46;95838.81;4336875;32;20189;-60
2022/09/04 13:25:14;;;;;;;0.10;0.10;;;;;;;21.89;61.11;95834.81;4317395;32;20186;-59
2022/09/04 13:28:11;;;;;;;0.40;0.40;;;;;;;21.83;60.68;95843.53;4351694;32;20188;-59
2022/09/04 13:30:52;;;;;;;0.10;0.10;;;;;;;21.83;60.48;95844.31;4333621;32;20227;-60
2022/09/04 13:33:42;;;;;;;0.33;0.33;;;;;;;21.83;60.41;95844.31;4322416;32;20177;-59
2022/09/04 13:36:27;;;;;;;0.17;0.17;;;;;;;21.73;61.25;95842.16;4334982;32;20177;-59
2022/09/04 13:39:43;;;;;;;0.33;0.33;;;;;;;21.68;61.38;95839.72;4342615;32;20203;-59
2022/09/04 13:42:18;;;;;;;0.30;0.30;;;;;;;21.60;61.67;95836.09;4306950;32;20288;-59
2022/09/04 13:45:07;;;;;;;0.60;0.60;;;;;;;21.50;62.26;95843.94;4306895;32;20256;-59
2022/09/04 13:48:01;;;;;;;0.00;0.00;;;;;;;21.65;59.19;95842.34;4334631;32;20174;-59
2022/09/04 13:50:38;;;;;;;0.20;0.10;;;;;;;21.56;61.11;95834.44;4336885;32;20242;-59
2022/09/04 13:54:03;;;;;;;0.13;0.13;;;;;;;21.41;61.32;95838.72;4322333;32;20303;-59
2022/09/04 13:57:14;;;;;;;0.23;0.23;;;;;;;21.57;60.58;95838.72;4291017;33;20348;-59
2022/09/04 13:59:47;;;;;;;0.20;0.20;;;;;;;21.57;61.00;95830.63;4290693;33;20321;-59
2022/09/04 14:02:18;;;;;;;0.10;0.10;;;;;;;21.58;61.41;95835.66;4299935;33;20264;-60
2022/09/04 14:04:51;;;;;;;2.60;0.27;;;;;;;21.88;60.09;95843.25;4319320;32;20311;-59
2022/09/04 14:07:28;;;;;;;0.27;0.27;;;;;;;22.07;59.84;95835.22;4333925;32;20398;-59
2022/09/04 14:10:03;;;;;;;0.10;0.10;;;;;;;22.20;58.71;95836.66;4291097;32;20189;-60
2022/09/04 14:12:56;;;;;;;0.13;0.13;;;;;;;22.29;59.43;95828.31;4312023;32;20245;-59
2022/09/04 14:16:00;;;;;;;0.20;0.20;;;;;;;22.12;59.19;95828.75;4306809;32;20189;-59
2022/09/04 14:18:56;;;;;;;0.43;0.43;;;;;;;22.18;58.09;95832.75;4314572;32;20185;-60
2022/09/04 14:21:55;;;;;;;0.10;0.10;;;;;;;22.40;57.59;95829.34;4320270;32;20193;-60
2022/09/04 14:24:41;;;;;;;0.00;0.00;;;;;;;22.52;55.80;95837.28;4324479;32;20186;-59